ilmateenistus.ee keskkonnaagentuur.ee
EETN Tallinna lennuväli
FTEO31 EETN 031700
TAF EETN 031702Z 0318/0418 29008KT 9999 SCT030 BECMG 0319/0321
    17005KT PROB40 TEMPO 0321/0403 2000 BR BKN003 BECMG 0406/0408 6000 RA
    BKN015 TEMPO 0408/0417 2000 SHRA BR BKN003 SCT015CB=

METAR EETN 032020Z VRB01KT 9999 FEW040 16/14 Q1008 NOSIG=
Tallinna lennuväli
EEKA Kärdla lennuväli
METAR EEKA 031950Z NIL=
Kärdla lennuväli
EEKE Kuressaare lennuväli
FCEO32 EETN 031400 AAA
TAF AMD EEKE 031800Z 0315/0321 CNL=

METAR EEKE 031950Z AUTO 00000KT 9999NDV NCD 17/14 Q1009=
Kuressaare lennuväli
EEPU Pärnu lennuväli
METAR EEPU 031950Z NIL=
Pärnu lennuväli
EETU Tartu lennuväli
METAR EETU 032020Z 17004KT 9999 SCT034 17/15 Q1010=
Tartu lennuväli
EEEI Ämari lennuväli
METAR EEEI 032020Z AUTO VRB02KT CAVOK 14/13 Q1009=
Ämari lennuväli